sensor_id;sensor_type;location;lat;lon;timestamp;pressure;altitude;pressure_sealevel;temperature;humidity
62600;BME280;48671;48.922;2.346;2022-07-23T00:00:43;101595.28;;;22.43;66.79
62600;BME280;48671;48.922;2.346;2022-07-23T00:03:09;101607.22;;;22.49;66.30
62600;BME280;48671;48.922;2.346;2022-07-23T00:05:34;101602.91;;;22.48;66.01
62600;BME280;48671;48.922;2.346;2022-07-23T00:08:00;101608.19;;;22.48;66.26
62600;BME280;48671;48.922;2.346;2022-07-23T00:10:25;101598.03;;;22.42;66.09
62600;BME280;48671;48.922;2.346;2022-07-23T00:12:51;101579.22;;;22.34;66.08
62600;BME280;48671;48.922;2.346;2022-07-23T00:15:16;101559.03;;;22.20;66.05
62600;BME280;48671;48.922;2.346;2022-07-23T00:17:41;101587.06;;;22.35;66.70
62600;BME280;48671;48.922;2.346;2022-07-23T00:20:07;101593.47;;;22.44;66.40
62600;BME280;48671;48.922;2.346;2022-07-23T00:22:32;101590.22;;;22.40;66.40
62600;BME280;48671;48.922;2.346;2022-07-23T00:24:58;101576.66;;;22.32;67.18
62600;BME280;48671;48.922;2.346;2022-07-23T00:27:23;101580.38;;;22.30;67.21
62600;BME280;48671;48.922;2.346;2022-07-23T00:29:49;101580.16;;;22.33;67.06
62600;BME280;48671;48.922;2.346;2022-07-23T00:32:15;101600.09;;;22.38;67.16
62600;BME280;48671;48.922;2.346;2022-07-23T00:34:40;101560.72;;;22.21;67.01
62600;BME280;48671;48.922;2.346;2022-07-23T00:37:06;101577.63;;;22.31;66.49
62600;BME280;48671;48.922;2.346;2022-07-23T00:39:31;101594.91;;;22.37;66.46
62600;BME280;48671;48.922;2.346;2022-07-23T00:41:56;101577.75;;;22.30;67.15
62600;BME280;48671;48.922;2.346;2022-07-23T00:44:25;101600.22;;;22.37;67.07
62600;BME280;48671;48.922;2.346;2022-07-23T00:46:53;101587.06;;;22.35;66.93
62600;BME280;48671;48.922;2.346;2022-07-23T00:49:29;101580.53;;;22.28;67.13
62600;BME280;48671;48.922;2.346;2022-07-23T00:51:55;101587.72;;;22.26;66.88
62600;BME280;48671;48.922;2.346;2022-07-23T00:54:23;101591.88;;;22.30;66.95
62600;BME280;48671;48.922;2.346;2022-07-23T00:56:49;101590.28;;;22.28;66.84
62600;BME280;48671;48.922;2.346;2022-07-23T00:59:14;101574.09;;;22.19;67.42
62600;BME280;48671;48.922;2.346;2022-07-23T01:01:40;101579.06;;;22.24;67.33
62600;BME280;48671;48.922;2.346;2022-07-23T01:04:06;101585.91;;;22.27;66.91
62600;BME280;48671;48.922;2.346;2022-07-23T01:06:36;101588.56;;;22.27;67.21
62600;BME280;48671;48.922;2.346;2022-07-23T01:09:03;101588.69;;;22.25;66.67
62600;BME280;48671;48.922;2.346;2022-07-23T01:11:30;101569.44;;;22.10;66.76
62600;BME280;48671;48.922;2.346;2022-07-23T01:13:56;101575.16;;;22.17;66.69
62600;BME280;48671;48.922;2.346;2022-07-23T01:16:21;101594.13;;;22.24;66.75
62600;BME280;48671;48.922;2.346;2022-07-23T01:18:47;101578.53;;;22.19;66.52
62600;BME280;48671;48.922;2.346;2022-07-23T01:21:12;101577.56;;;22.20;66.76
62600;BME280;48671;48.922;2.346;2022-07-23T01:23:38;101577.72;;;22.18;66.85
62600;BME280;48671;48.922;2.346;2022-07-23T01:26:04;101576.63;;;22.21;66.72
62600;BME280;48671;48.922;2.346;2022-07-23T01:28:29;101576.88;;;22.18;67.06
62600;BME280;48671;48.922;2.346;2022-07-23T01:30:54;101564.78;;;22.14;66.91
62600;BME280;48671;48.922;2.346;2022-07-23T01:33:20;101563.81;;;22.15;66.25
62600;BME280;48671;48.922;2.346;2022-07-23T01:35:45;101559.69;;;22.11;66.23
62600;BME280;48671;48.922;2.346;2022-07-23T01:38:10;101582.03;;;22.19;66.51
62600;BME280;48671;48.922;2.346;2022-07-23T01:40:36;101578.97;;;22.13;66.45
62600;BME280;48671;48.922;2.346;2022-07-23T01:43:01;101565.31;;;22.06;66.68
62600;BME280;48671;48.922;2.346;2022-07-23T01:45:26;101582.16;;;22.18;66.79
62600;BME280;48671;48.922;2.346;2022-07-23T01:47:52;101578.78;;;22.16;66.54
62600;BME280;48671;48.922;2.346;2022-07-23T01:50:17;101563.88;;;22.02;66.87
62600;BME280;48671;48.922;2.346;2022-07-23T01:52:43;101575.69;;;22.09;66.58
62600;BME280;48671;48.922;2.346;2022-07-23T01:55:08;101576.75;;;22.07;66.46
62600;BME280;48671;48.922;2.346;2022-07-23T01:57:34;101564.25;;;22.09;66.69
62600;BME280;48671;48.922;2.346;2022-07-23T01:59:59;101571.00;;;22.13;66.65
62600;BME280;48671;48.922;2.346;2022-07-23T02:02:24;101566.06;;;22.08;66.85
62600;BME280;48671;48.922;2.346;2022-07-23T02:04:50;101568.72;;;22.08;66.87
62600;BME280;48671;48.922;2.346;2022-07-23T02:07:15;101560.03;;;22.06;66.65
62600;BME280;48671;48.922;2.346;2022-07-23T02:09:40;101566.69;;;22.12;66.50
62600;BME280;48671;48.922;2.346;2022-07-23T02:12:06;101532.13;;;21.89;67.36
62600;BME280;48671;48.922;2.346;2022-07-23T02:14:31;101560.84;;;22.07;67.21
62600;BME280;48671;48.922;2.346;2022-07-23T02:16:56;101556.31;;;22.09;67.59
62600;BME280;48671;48.922;2.346;2022-07-23T02:19:22;101574.63;;;22.12;67.50
62600;BME280;48671;48.922;2.346;2022-07-23T02:21:47;101573.03;;;22.09;67.19
62600;BME280;48671;48.922;2.346;2022-07-23T02:24:14;101578.03;;;22.14;67.46
62600;BME280;48671;48.922;2.346;2022-07-23T02:26:39;101581.53;;;22.14;67.64
62600;BME280;48671;48.922;2.346;2022-07-23T02:29:05;101582.44;;;22.13;67.82
62600;BME280;48671;48.922;2.346;2022-07-23T02:31:30;101584.25;;;22.13;67.31
62600;BME280;48671;48.922;2.346;2022-07-23T02:33:56;101583.56;;;22.11;67.31
62600;BME280;48671;48.922;2.346;2022-07-23T02:36:21;101583.66;;;22.09;67.74
62600;BME280;48671;48.922;2.346;2022-07-23T02:38:47;101586.44;;;22.08;67.83
62600;BME280;48671;48.922;2.346;2022-07-23T02:41:12;101559.44;;;21.90;67.99
62600;BME280;48671;48.922;2.346;2022-07-23T02:43:38;101591.66;;;21.96;67.70
62600;BME280;48671;48.922;2.346;2022-07-23T02:46:03;101597.69;;;21.98;68.08
62600;BME280;48671;48.922;2.346;2022-07-23T02:48:29;101581.63;;;21.89;67.66
62600;BME280;48671;48.922;2.346;2022-07-23T02:50:54;101599.38;;;22.00;68.05
62600;BME280;48671;48.922;2.346;2022-07-23T02:53:22;101585.94;;;21.90;67.65
62600;BME280;48671;48.922;2.346;2022-07-23T02:55:47;101582.59;;;21.88;67.88
62600;BME280;48671;48.922;2.346;2022-07-23T02:58:12;101591.25;;;21.90;67.99
62600;BME280;48671;48.922;2.346;2022-07-23T03:00:37;101599.72;;;21.95;67.23
62600;BME280;48671;48.922;2.346;2022-07-23T03:03:03;101607.97;;;21.90;67.15
62600;BME280;48671;48.922;2.346;2022-07-23T03:05:28;101611.06;;;21.84;67.94
62600;BME280;48671;48.922;2.346;2022-07-23T03:07:53;101622.63;;;21.83;68.01
62600;BME280;48671;48.922;2.346;2022-07-23T03:10:19;101622.84;;;21.80;67.83
62600;BME280;48671;48.922;2.346;2022-07-23T03:12:44;101608.03;;;21.78;67.55
62600;BME280;48671;48.922;2.346;2022-07-23T03:15:10;101590.03;;;21.70;68.45
62600;BME280;48671;48.922;2.346;2022-07-23T03:17:35;101615.25;;;21.76;67.95
62600;BME280;48671;48.922;2.346;2022-07-23T03:20:00;101603.81;;;21.75;68.07
62600;BME280;48671;48.922;2.346;2022-07-23T03:22:26;101597.47;;;21.65;68.02
62600;BME280;48671;48.922;2.346;2022-07-23T03:24:51;101613.78;;;21.71;67.54
62600;BME280;48671;48.922;2.346;2022-07-23T03:27:23;101598.63;;;21.61;67.70
62600;BME280;48671;48.922;2.346;2022-07-23T03:29:50;101619.50;;;21.65;67.85
62600;BME280;48671;48.922;2.346;2022-07-23T03:32:16;101604.06;;;21.59;67.68
62600;BME280;48671;48.922;2.346;2022-07-23T03:34:41;101604.56;;;21.51;67.73
62600;BME280;48671;48.922;2.346;2022-07-23T03:37:07;101618.66;;;21.65;67.69
62600;BME280;48671;48.922;2.346;2022-07-23T03:39:32;101624.59;;;21.68;67.00
62600;BME280;48671;48.922;2.346;2022-07-23T03:41:57;101584.69;;;21.46;67.97
62600;BME280;48671;48.922;2.346;2022-07-23T03:44:23;101610.19;;;21.60;67.37
62600;BME280;48671;48.922;2.346;2022-07-23T03:46:48;101624.38;;;21.71;67.23
62600;BME280;48671;48.922;2.346;2022-07-23T03:49:14;101601.72;;;21.55;66.70
62600;BME280;48671;48.922;2.346;2022-07-23T03:51:39;101614.75;;;21.58;67.20
62600;BME280;48671;48.922;2.346;2022-07-23T03:54:04;101609.66;;;21.55;67.33
62600;BME280;48671;48.922;2.346;2022-07-23T03:56:30;101605.31;;;21.54;66.74
62600;BME280;48671;48.922;2.346;2022-07-23T03:58:55;101612.78;;;21.48;66.13
62600;BME280;48671;48.922;2.346;2022-07-23T04:01:20;101618.06;;;21.48;66.03
62600;BME280;48671;48.922;2.346;2022-07-23T04:03:46;101637.31;;;21.50;65.52
62600;BME280;48671;48.922;2.346;2022-07-23T04:06:11;101632.16;;;21.49;65.49
62600;BME280;48671;48.922;2.346;2022-07-23T04:08:37;101635.72;;;21.48;66.24
62600;BME280;48671;48.922;2.346;2022-07-23T04:11:02;101629.28;;;21.39;65.73
62600;BME280;48671;48.922;2.346;2022-07-23T04:13:27;101642.09;;;21.45;65.69
62600;BME280;48671;48.922;2.346;2022-07-23T04:15:53;101630.53;;;21.34;65.50
62600;BME280;48671;48.922;2.346;2022-07-23T04:18:18;101635.53;;;21.25;65.46
62600;BME280;48671;48.922;2.346;2022-07-23T04:20:44;101636.56;;;21.23;65.24
62600;BME280;48671;48.922;2.346;2022-07-23T04:23:10;101652.03;;;21.29;65.98
62600;BME280;48671;48.922;2.346;2022-07-23T04:25:36;101658.25;;;21.28;65.81
62600;BME280;48671;48.922;2.346;2022-07-23T04:28:01;101622.28;;;21.13;65.59
62600;BME280;48671;48.922;2.346;2022-07-23T04:30:27;101648.22;;;21.33;66.02
62600;BME280;48671;48.922;2.346;2022-07-23T04:32:52;101644.09;;;21.29;65.84
62600;BME280;48671;48.922;2.346;2022-07-23T04:35:18;101634.34;;;21.17;65.88
62600;BME280;48671;48.922;2.346;2022-07-23T04:37:43;101653.28;;;21.23;65.94
62600;BME280;48671;48.922;2.346;2022-07-23T04:40:09;101644.72;;;21.20;66.05
62600;BME280;48671;48.922;2.346;2022-07-23T04:42:34;101629.59;;;21.09;65.84
62600;BME280;48671;48.922;2.346;2022-07-23T04:45:00;101648.97;;;21.22;65.97
62600;BME280;48671;48.922;2.346;2022-07-23T04:47:25;101632.13;;;21.11;65.59
62600;BME280;48671;48.922;2.346;2022-07-23T04:49:50;101649.81;;;21.23;65.85
62600;BME280;48671;48.922;2.346;2022-07-23T04:52:16;101643.25;;;21.16;65.43
62600;BME280;48671;48.922;2.346;2022-07-23T04:54:41;101647.16;;;21.23;65.94
62600;BME280;48671;48.922;2.346;2022-07-23T04:57:06;101661.75;;;21.28;65.88
62600;BME280;48671;48.922;2.346;2022-07-23T04:59:31;101660.59;;;21.33;65.88
62600;BME280;48671;48.922;2.346;2022-07-23T05:01:57;101651.06;;;21.30;65.78
62600;BME280;48671;48.922;2.346;2022-07-23T05:04:22;101663.25;;;21.33;65.71
62600;BME280;48671;48.922;2.346;2022-07-23T05:06:47;101646.41;;;21.21;66.07
62600;BME280;48671;48.922;2.346;2022-07-23T05:09:13;101643.75;;;21.21;65.45
62600;BME280;48671;48.922;2.346;2022-07-23T05:11:38;101657.53;;;21.26;65.77
62600;BME280;48671;48.922;2.346;2022-07-23T05:14:03;101653.38;;;21.22;65.42
62600;BME280;48671;48.922;2.346;2022-07-23T05:16:29;101661.88;;;21.27;65.53
62600;BME280;48671;48.922;2.346;2022-07-23T05:18:54;101660.91;;;21.28;66.24
62600;BME280;48671;48.922;2.346;2022-07-23T05:21:19;101646.63;;;21.18;65.67
62600;BME280;48671;48.922;2.346;2022-07-23T05:23:45;101657.84;;;21.21;66.08
62600;BME280;48671;48.922;2.346;2022-07-23T05:26:10;101659.22;;;21.27;66.28
62600;BME280;48671;48.922;2.346;2022-07-23T05:28:35;101658.16;;;21.30;65.87
62600;BME280;48671;48.922;2.346;2022-07-23T05:31:01;101638.16;;;21.13;66.00
62600;BME280;48671;48.922;2.346;2022-07-23T05:33:29;101651.28;;;21.27;65.67
62600;BME280;48671;48.922;2.346;2022-07-23T05:36:00;101637.50;;;21.22;66.16
62600;BME280;48671;48.922;2.346;2022-07-23T05:38:26;101643.13;;;21.30;65.74
62600;BME280;48671;48.922;2.346;2022-07-23T05:40:51;101648.13;;;21.35;65.76
62600;BME280;48671;48.922;2.346;2022-07-23T05:43:16;101667.06;;;21.41;65.51
62600;BME280;48671;48.922;2.346;2022-07-23T05:45:42;101655.78;;;21.39;65.94
62600;BME280;48671;48.922;2.346;2022-07-23T05:48:07;101612.31;;;21.16;64.74
62600;BME280;48671;48.922;2.346;2022-07-23T05:50:32;101650.56;;;21.38;65.08
62600;BME280;48671;48.922;2.346;2022-07-23T05:52:58;101646.53;;;21.32;65.56
62600;BME280;48671;48.922;2.346;2022-07-23T05:55:23;101661.91;;;21.40;64.98
62600;BME280;48671;48.922;2.346;2022-07-23T05:57:48;101660.31;;;21.37;64.80
62600;BME280;48671;48.922;2.346;2022-07-23T06:00:14;101656.38;;;21.30;65.33
62600;BME280;48671;48.922;2.346;2022-07-23T06:02:39;101672.28;;;21.43;64.89
62600;BME280;48671;48.922;2.346;2022-07-23T06:05:05;101667.63;;;21.46;65.33
62600;BME280;48671;48.922;2.346;2022-07-23T06:07:32;101678.97;;;21.48;65.34
62600;BME280;48671;48.922;2.346;2022-07-23T06:09:58;101671.22;;;21.45;65.38
62600;BME280;48671;48.922;2.346;2022-07-23T06:12:23;101661.06;;;21.39;65.90
62600;BME280;48671;48.922;2.346;2022-07-23T06:14:49;101637.63;;;21.33;65.47
62600;BME280;48671;48.922;2.346;2022-07-23T06:17:17;101676.19;;;21.63;65.60
62600;BME280;48671;48.922;2.346;2022-07-23T06:19:42;101671.72;;;21.63;65.48
62600;BME280;48671;48.922;2.346;2022-07-23T06:22:07;101669.41;;;21.59;65.67
62600;BME280;48671;48.922;2.346;2022-07-23T06:24:33;101682.22;;;21.65;65.67
62600;BME280;48671;48.922;2.346;2022-07-23T06:26:58;101679.88;;;21.60;66.06
62600;BME280;48671;48.922;2.346;2022-07-23T06:29:23;101693.97;;;21.61;66.00
62600;BME280;48671;48.922;2.346;2022-07-23T06:31:49;101658.41;;;21.39;66.36
62600;BME280;48671;48.922;2.346;2022-07-23T06:34:14;101694.19;;;21.58;66.82
62600;BME280;48671;48.922;2.346;2022-07-23T06:36:39;101681.38;;;21.51;66.23
62600;BME280;48671;48.922;2.346;2022-07-23T06:39:05;101677.25;;;21.47;66.35
62600;BME280;48671;48.922;2.346;2022-07-23T06:41:30;101694.19;;;21.58;66.31
62600;BME280;48671;48.922;2.346;2022-07-23T06:43:55;101667.19;;;21.40;67.13
62600;BME280;48671;48.922;2.346;2022-07-23T06:46:20;101664.84;;;21.35;67.28
62600;BME280;48671;48.922;2.346;2022-07-23T06:48:46;101706.16;;;21.63;66.77
62600;BME280;48671;48.922;2.346;2022-07-23T06:51:12;101704.34;;;21.64;67.02
62600;BME280;48671;48.922;2.346;2022-07-23T06:53:37;101678.84;;;21.50;67.30
62600;BME280;48671;48.922;2.346;2022-07-23T06:56:02;101686.38;;;21.56;67.04
62600;BME280;48671;48.922;2.346;2022-07-23T06:58:28;101701.72;;;21.64;67.23
62600;BME280;48671;48.922;2.346;2022-07-23T07:00:53;101698.56;;;21.59;67.48
62600;BME280;48671;48.922;2.346;2022-07-23T07:03:19;101698.84;;;21.54;67.78
62600;BME280;48671;48.922;2.346;2022-07-23T07:05:45;101710.69;;;21.61;67.82
62600;BME280;48671;48.922;2.346;2022-07-23T07:08:10;101698.75;;;21.56;67.31
62600;BME280;48671;48.922;2.346;2022-07-23T07:10:36;101685.81;;;21.51;67.76
62600;BME280;48671;48.922;2.346;2022-07-23T07:13:01;101728.41;;;21.73;67.62
62600;BME280;48671;48.922;2.346;2022-07-23T07:15:27;101711.78;;;21.71;67.53
62600;BME280;48671;48.922;2.346;2022-07-23T07:17:52;101685.31;;;21.59;67.90
62600;BME280;48671;48.922;2.346;2022-07-23T07:20:17;101725.44;;;21.78;67.16
62600;BME280;48671;48.922;2.346;2022-07-23T07:22:43;101740.03;;;21.84;67.41
62600;BME280;48671;48.922;2.346;2022-07-23T07:25:09;101743.22;;;21.89;67.39
62600;BME280;48671;48.922;2.346;2022-07-23T07:27:34;101735.59;;;21.84;67.19
62600;BME280;48671;48.922;2.346;2022-07-23T07:29:59;101746.72;;;21.89;66.83
62600;BME280;48671;48.922;2.346;2022-07-23T07:32:25;101745.75;;;21.90;67.53
62600;BME280;48671;48.922;2.346;2022-07-23T07:34:50;101736.88;;;21.91;67.26
62600;BME280;48671;48.922;2.346;2022-07-23T07:37:16;101746.19;;;21.97;67.14
62600;BME280;48671;48.922;2.346;2022-07-23T07:39:41;101740.78;;;21.98;67.56
62600;BME280;48671;48.922;2.346;2022-07-23T07:42:06;101733.69;;;21.99;67.14
62600;BME280;48671;48.922;2.346;2022-07-23T07:44:32;101730.81;;;22.02;66.75
62600;BME280;48671;48.922;2.346;2022-07-23T07:46:57;101748.72;;;22.11;66.97
62600;BME280;48671;48.922;2.346;2022-07-23T07:49:22;101755.63;;;22.14;67.65
62600;BME280;48671;48.922;2.346;2022-07-23T07:51:49;101745.09;;;22.12;67.61
62600;BME280;48671;48.922;2.346;2022-07-23T07:54:14;101752.22;;;22.12;66.50
62600;BME280;48671;48.922;2.346;2022-07-23T07:56:40;101757.28;;;22.15;67.27
62600;BME280;48671;48.922;2.346;2022-07-23T07:59:05;101754.09;;;22.10;66.68
62600;BME280;48671;48.922;2.346;2022-07-23T08:01:30;101766.44;;;22.11;66.69
62600;BME280;48671;48.922;2.346;2022-07-23T08:03:56;101765.69;;;22.09;67.08
62600;BME280;48671;48.922;2.346;2022-07-23T08:06:21;101763.88;;;22.22;66.74
62600;BME280;48671;48.922;2.346;2022-07-23T08:08:47;101760.03;;;22.26;66.54
62600;BME280;48671;48.922;2.346;2022-07-23T08:11:12;101740.13;;;22.08;66.10
62600;BME280;48671;48.922;2.346;2022-07-23T08:13:38;101763.31;;;22.30;66.12
62600;BME280;48671;48.922;2.346;2022-07-23T08:16:03;101765.00;;;22.43;66.09
62600;BME280;48671;48.922;2.346;2022-07-23T08:18:29;101752.38;;;22.47;65.67
62600;BME280;48671;48.922;2.346;2022-07-23T08:20:54;101763.66;;;22.62;65.81
62600;BME280;48671;48.922;2.346;2022-07-23T08:23:20;101761.44;;;22.56;65.65
62600;BME280;48671;48.922;2.346;2022-07-23T08:25:46;101763.25;;;22.55;65.32
62600;BME280;48671;48.922;2.346;2022-07-23T08:28:13;101778.28;;;22.67;64.98
62600;BME280;48671;48.922;2.346;2022-07-23T08:30:39;101766.22;;;22.63;65.50
62600;BME280;48671;48.922;2.346;2022-07-23T08:33:06;101787.16;;;22.79;65.11
62600;BME280;48671;48.922;2.346;2022-07-23T08:35:43;101784.78;;;22.87;64.93
62600;BME280;48671;48.922;2.346;2022-07-23T08:38:12;101784.97;;;22.97;64.59
62600;BME280;48671;48.922;2.346;2022-07-23T08:40:44;101791.69;;;23.14;63.95
62600;BME280;48671;48.922;2.346;2022-07-23T08:43:12;101796.31;;;23.23;63.58
62600;BME280;48671;48.922;2.346;2022-07-23T08:45:43;101785.00;;;23.32;62.09
62600;BME280;48671;48.922;2.346;2022-07-23T08:48:14;101791.22;;;23.55;61.21
62600;BME280;48671;48.922;2.346;2022-07-23T08:50:44;101801.78;;;23.79;61.32
62600;BME280;48671;48.922;2.346;2022-07-23T08:53:10;101793.34;;;23.86;60.83
62600;BME280;48671;48.922;2.346;2022-07-23T08:55:35;101795.38;;;23.93;61.47
62600;BME280;48671;48.922;2.346;2022-07-23T08:58:01;101806.88;;;24.05;60.73
62600;BME280;48671;48.922;2.346;2022-07-23T09:00:27;101802.53;;;24.04;60.32
62600;BME280;48671;48.922;2.346;2022-07-23T09:02:53;101793.72;;;23.92;61.48
62600;BME280;48671;48.922;2.346;2022-07-23T09:05:19;101804.56;;;23.89;61.06
62600;BME280;48671;48.922;2.346;2022-07-23T09:08:33;101801.06;;;23.89;61.35
62600;BME280;48671;48.922;2.346;2022-07-23T09:11:01;101795.75;;;23.89;61.12
62600;BME280;48671;48.922;2.346;2022-07-23T09:16:15;101797.94;;;23.95;61.08
62600;BME280;48671;48.922;2.346;2022-07-23T09:18:44;101792.38;;;23.98;60.72
62600;BME280;48671;48.922;2.346;2022-07-23T09:21:12;101797.22;;;24.04;60.92
62600;BME280;48671;48.922;2.346;2022-07-23T09:23:50;101785.84;;;24.02;60.76
62600;BME280;48671;48.922;2.346;2022-07-23T09:26:19;101797.94;;;24.17;60.38
62600;BME280;48671;48.922;2.346;2022-07-23T09:28:54;101793.81;;;24.13;59.59
62600;BME280;48671;48.922;2.346;2022-07-23T09:31:21;101791.16;;;24.13;59.85
62600;BME280;48671;48.922;2.346;2022-07-23T09:33:47;101791.53;;;24.31;59.12
62600;BME280;48671;48.922;2.346;2022-07-23T09:36:12;101777.84;;;24.36;58.95
62600;BME280;48671;48.922;2.346;2022-07-23T09:38:48;101767.47;;;24.44;58.23
62600;BME280;48671;48.922;2.346;2022-07-23T09:41:14;101790.53;;;24.66;58.07
62600;BME280;48671;48.922;2.346;2022-07-23T09:43:39;101781.81;;;24.64;57.42
62600;BME280;48671;48.922;2.346;2022-07-23T09:46:37;101788.47;;;24.58;58.34
62600;BME280;48671;48.922;2.346;2022-07-23T09:51:59;101797.66;;;24.76;58.25
62600;BME280;48671;48.922;2.346;2022-07-23T09:54:36;101792.50;;;24.96;57.36
62600;BME280;48671;48.922;2.346;2022-07-23T09:57:05;101783.34;;;25.10;57.58
62600;BME280;48671;48.922;2.346;2022-07-23T09:59:35;101780.56;;;25.22;56.73
62600;BME280;48671;48.922;2.346;2022-07-23T10:02:01;101792.19;;;25.42;56.01
62600;BME280;48671;48.922;2.346;2022-07-23T10:04:29;101788.09;;;25.59;56.01
62600;BME280;48671;48.922;2.346;2022-07-23T10:07:00;101768.31;;;25.62;54.60
62600;BME280;48671;48.922;2.346;2022-07-23T10:09:31;101780.97;;;25.69;53.16
62600;BME280;48671;48.922;2.346;2022-07-23T10:12:02;101777.47;;;25.69;54.02
62600;BME280;48671;48.922;2.346;2022-07-23T10:14:48;101782.03;;;25.78;54.78
62600;BME280;48671;48.922;2.346;2022-07-23T10:17:14;101780.28;;;25.88;54.37
62600;BME280;48671;48.922;2.346;2022-07-23T10:19:40;101781.31;;;25.97;53.12
62600;BME280;48671;48.922;2.346;2022-07-23T10:22:20;101754.28;;;25.81;52.77
62600;BME280;48671;48.922;2.346;2022-07-23T10:30:00;101770.44;;;25.89;53.85
62600;BME280;48671;48.922;2.346;2022-07-23T10:35:26;101782.22;;;26.17;53.96
62600;BME280;48671;48.922;2.346;2022-07-23T10:38:11;101769.00;;;26.15;52.85
62600;BME280;48671;48.922;2.346;2022-07-23T10:40:53;101786.75;;;26.26;53.58
62600;BME280;48671;48.922;2.346;2022-07-23T10:43:20;101797.38;;;26.17;52.25
62600;BME280;48671;48.922;2.346;2022-07-23T10:45:45;101791.97;;;25.97;54.00
62600;BME280;48671;48.922;2.346;2022-07-23T10:50:40;101806.69;;;25.91;53.63
62600;BME280;48671;48.922;2.346;2022-07-23T10:58:00;101796.16;;;26.30;52.91
62600;BME280;48671;48.922;2.346;2022-07-23T11:00:27;101813.25;;;26.58;51.93
62600;BME280;48671;48.922;2.346;2022-07-23T11:02:58;101816.94;;;26.77;51.35
62600;BME280;48671;48.922;2.346;2022-07-23T11:05:27;101812.16;;;26.71;51.67
62600;BME280;48671;48.922;2.346;2022-07-23T11:10:39;101825.53;;;26.90;51.52
62600;BME280;48671;48.922;2.346;2022-07-23T11:26:47;101786.34;;;26.31;51.31
62600;BME280;48671;48.922;2.346;2022-07-23T11:32:02;101824.25;;;26.84;50.31
62600;BME280;48671;48.922;2.346;2022-07-23T11:36:57;101794.66;;;26.47;50.64
62600;BME280;48671;48.922;2.346;2022-07-23T11:39:25;101823.50;;;26.53;50.80
62600;BME280;48671;48.922;2.346;2022-07-23T11:41:52;101803.56;;;26.17;51.45
62600;BME280;48671;48.922;2.346;2022-07-23T11:44:30;101826.19;;;26.23;51.50
62600;BME280;48671;48.922;2.346;2022-07-23T11:47:00;101821.69;;;26.23;51.64
62600;BME280;48671;48.922;2.346;2022-07-23T11:49:26;101821.19;;;26.39;51.12
62600;BME280;48671;48.922;2.346;2022-07-23T11:52:09;101831.81;;;26.60;50.92
62600;BME280;48671;48.922;2.346;2022-07-23T11:54:47;101825.63;;;26.59;50.90
62600;BME280;48671;48.922;2.346;2022-07-23T11:57:13;101810.53;;;26.39;50.14
62600;BME280;48671;48.922;2.346;2022-07-23T11:59:39;101808.13;;;26.36;50.10
62600;BME280;48671;48.922;2.346;2022-07-23T12:02:06;101825.19;;;26.54;50.05
62600;BME280;48671;48.922;2.346;2022-07-23T12:04:45;101824.97;;;26.77;50.43
62600;BME280;48671;48.922;2.346;2022-07-23T12:07:33;101817.78;;;26.77;49.90
62600;BME280;48671;48.922;2.346;2022-07-23T12:12:46;101820.16;;;26.61;50.36
62600;BME280;48671;48.922;2.346;2022-07-23T12:15:16;101824.91;;;26.57;50.58
62600;BME280;48671;48.922;2.346;2022-07-23T12:17:44;101829.69;;;26.54;51.17
62600;BME280;48671;48.922;2.346;2022-07-23T12:20:14;101820.16;;;26.71;50.83
62600;BME280;48671;48.922;2.346;2022-07-23T12:22:48;101823.69;;;26.81;50.33
62600;BME280;48671;48.922;2.346;2022-07-23T12:25:19;101823.41;;;26.74;50.54
62600;BME280;48671;48.922;2.346;2022-07-23T12:27:46;101822.72;;;26.82;50.28
62600;BME280;48671;48.922;2.346;2022-07-23T12:30:38;101834.28;;;27.02;49.67
62600;BME280;48671;48.922;2.346;2022-07-23T12:33:04;101819.41;;;27.28;48.79
62600;BME280;48671;48.922;2.346;2022-07-23T12:35:32;101815.03;;;27.47;49.08
62600;BME280;48671;48.922;2.346;2022-07-23T12:38:04;101831.13;;;27.74;48.30
62600;BME280;48671;48.922;2.346;2022-07-23T12:40:33;101780.84;;;27.50;47.76
62600;BME280;48671;48.922;2.346;2022-07-23T12:43:11;101817.75;;;27.94;47.89
62600;BME280;48671;48.922;2.346;2022-07-23T12:45:51;101815.31;;;28.00;48.05
62600;BME280;48671;48.922;2.346;2022-07-23T12:48:27;101814.00;;;28.14;47.30
62600;BME280;48671;48.922;2.346;2022-07-23T12:50:55;101796.81;;;28.17;45.60
62600;BME280;48671;48.922;2.346;2022-07-23T12:55:49;101801.81;;;28.39;45.58
62600;BME280;48671;48.922;2.346;2022-07-23T12:58:20;101813.38;;;28.58;45.58
62600;BME280;48671;48.922;2.346;2022-07-23T13:00:56;101806.28;;;28.66;45.05
62600;BME280;48671;48.922;2.346;2022-07-23T13:03:37;101794.78;;;28.74;44.65
62600;BME280;48671;48.922;2.346;2022-07-23T13:06:05;101773.66;;;28.71;44.33
62600;BME280;48671;48.922;2.346;2022-07-23T13:08:31;101795.50;;;28.94;44.17
62600;BME280;48671;48.922;2.346;2022-07-23T13:10:57;101777.69;;;29.03;44.35
62600;BME280;48671;48.922;2.346;2022-07-23T13:13:25;101778.22;;;29.24;44.43
62600;BME280;48671;48.922;2.346;2022-07-23T13:15:51;101760.63;;;29.30;42.41
62600;BME280;48671;48.922;2.346;2022-07-23T13:18:17;101793.63;;;29.48;43.26
62600;BME280;48671;48.922;2.346;2022-07-23T13:20:45;101782.56;;;29.51;43.34
62600;BME280;48671;48.922;2.346;2022-07-23T13:23:11;101786.84;;;29.62;43.83
62600;BME280;48671;48.922;2.346;2022-07-23T13:25:36;101763.94;;;29.68;42.98
62600;BME280;48671;48.922;2.346;2022-07-23T13:28:02;101774.56;;;29.85;41.64
62600;BME280;48671;48.922;2.346;2022-07-23T13:30:28;101764.47;;;29.71;42.85
62600;BME280;48671;48.922;2.346;2022-07-23T13:32:53;101791.16;;;29.81;41.38
62600;BME280;48671;48.922;2.346;2022-07-23T13:35:19;101791.59;;;29.68;41.35
62600;BME280;48671;48.922;2.346;2022-07-23T13:37:44;101785.47;;;29.84;42.58